createdAt,value
2018-05-15T00:00:30.235Z,55.73
2018-05-15T00:02:59.047Z,56.83
2018-05-15T00:05:34.884Z,58.37
2018-05-15T00:08:04.866Z,56.13
2018-05-15T00:10:35.310Z,55.73
2018-05-15T00:13:04.105Z,56.77
2018-05-15T00:15:36.437Z,57.30
2018-05-15T00:18:05.371Z,56.83
2018-05-15T00:20:41.235Z,57.57
2018-05-15T00:23:10.200Z,57.97
2018-05-15T00:25:42.344Z,56.27
2018-05-15T00:28:11.362Z,56.37
2018-05-15T00:30:44.277Z,58.10
2018-05-15T00:33:14.578Z,57.03
2018-05-15T00:35:47.123Z,59.20
2018-05-15T00:38:16.349Z,58.90
2018-05-15T00:40:48.745Z,59.03
2018-05-15T00:43:17.589Z,58.70
2018-05-15T00:45:51.647Z,61.00
2018-05-15T00:48:20.536Z,60.37
2018-05-15T00:50:57.582Z,59.80
2018-05-15T00:53:26.728Z,59.87
2018-05-15T00:55:56.567Z,58.07
2018-05-15T00:58:25.816Z,57.33
2018-05-15T01:00:58.567Z,59.70
2018-05-15T01:03:27.339Z,58.30
2018-05-15T01:06:03.451Z,58.70
2018-05-15T01:08:32.852Z,61.93
2018-05-15T01:11:05.018Z,59.03
2018-05-15T01:13:34.292Z,61.03
2018-05-15T01:16:06.461Z,59.20
2018-05-15T01:18:35.460Z,60.23
2018-05-15T01:21:12.204Z,60.97
2018-05-15T01:23:41.512Z,62.00
2018-05-15T01:26:13.412Z,59.60
2018-05-15T01:28:42.233Z,58.87
2018-05-15T01:31:14.821Z,59.10
2018-05-15T01:33:43.854Z,59.37
2018-05-15T01:36:20.717Z,61.17
2018-05-15T01:38:49.725Z,62.70
2018-05-15T01:41:19.948Z,61.23
2018-05-15T01:43:48.653Z,60.60
2018-05-15T01:46:22.038Z,62.60
2018-05-15T01:48:50.759Z,64.47
2018-05-15T01:51:23.495Z,63.67
2018-05-15T01:53:52.660Z,61.57
2018-05-15T01:56:25.785Z,62.67
2018-05-15T01:58:54.546Z,60.50
2018-05-15T02:01:26.828Z,63.50
2018-05-15T02:03:55.730Z,65.93
2018-05-15T02:06:32.494Z,65.57
2018-05-15T02:09:02.386Z,59.80
2018-05-15T02:11:31.206Z,65.17
2018-05-15T02:14:00.054Z,64.23
2018-05-15T02:16:37.020Z,63.13
2018-05-15T02:19:06.061Z,66.13
2018-05-15T02:21:35.312Z,65.30
2018-05-15T02:24:04.665Z,62.90
2018-05-15T02:26:37.367Z,66.87
2018-05-15T02:29:07.201Z,66.37
2018-05-15T02:31:39.683Z,63.67
2018-05-15T02:34:08.717Z,65.17
2018-05-15T02:36:45.577Z,64.93
2018-05-15T02:39:14.665Z,64.70
2018-05-15T02:41:44.262Z,59.53
2018-05-15T02:44:12.979Z,63.27
2018-05-15T02:46:49.217Z,64.10
2018-05-15T02:49:17.982Z,61.13
2018-05-15T02:51:50.186Z,62.80
2018-05-15T02:54:19.540Z,61.63
2018-05-15T02:56:51.842Z,62.63
2018-05-15T02:59:20.618Z,61.27
2018-05-15T03:01:57.322Z,62.50
2018-05-15T03:04:26.094Z,59.90
2018-05-15T03:06:56.765Z,59.90
2018-05-15T03:09:26.714Z,60.07
2018-05-15T03:12:02.674Z,63.53
2018-05-15T03:14:31.761Z,63.37
2018-05-15T03:17:02.126Z,63.27
2018-05-15T03:19:31.018Z,60.90
2018-05-15T03:22:05.348Z,64.27
2018-05-15T03:24:34.332Z,65.03
2018-05-15T03:27:10.693Z,66.27
2018-05-15T03:29:39.449Z,63.30
2018-05-15T03:32:12.236Z,64.80
2018-05-15T03:34:41.479Z,65.70
2018-05-15T03:37:15.094Z,63.30
2018-05-15T03:39:43.923Z,62.03
2018-05-15T03:42:16.115Z,65.73
2018-05-15T03:44:44.979Z,62.97
2018-05-15T03:47:18.294Z,65.77
2018-05-15T03:49:47.060Z,64.13
2018-05-15T03:52:23.045Z,65.17
2018-05-15T03:54:52.037Z,64.30
2018-05-15T03:57:22.227Z,62.70
2018-05-15T03:59:51.025Z,64.40
2018-05-15T04:06:46.662Z,63.83
2018-05-15T04:09:15.705Z,60.47
2018-05-15T04:11:45.335Z,63.23
2018-05-15T04:14:14.136Z,65.33
2018-05-15T04:16:43.231Z,66.40
2018-05-15T04:19:12.018Z,63.40
2018-05-15T04:21:40.764Z,63.87
2018-05-15T04:24:10.545Z,60.97
2018-05-15T04:26:39.467Z,62.73
2018-05-15T04:29:09.044Z,60.40
2018-05-15T04:31:38.333Z,60.83
2018-05-15T04:34:07.019Z,59.70
2018-05-15T04:36:39.860Z,60.07
2018-05-15T04:39:08.951Z,59.00
2018-05-15T04:41:41.704Z,58.40
2018-05-15T04:44:10.468Z,59.73
2018-05-15T04:46:48.041Z,60.87
2018-05-15T04:49:16.902Z,62.30
2018-05-15T04:51:46.408Z,62.20
2018-05-15T04:54:15.474Z,62.20
2018-05-15T04:56:52.617Z,59.70
2018-05-15T04:59:21.777Z,60.10
2018-05-15T05:01:51.552Z,61.67
2018-05-15T05:04:20.325Z,58.47
2018-05-15T05:06:56.740Z,59.50
2018-05-15T05:09:25.902Z,58.07
2018-05-15T05:11:56.701Z,58.97
2018-05-15T05:14:25.714Z,57.60
2018-05-15T05:17:01.882Z,55.77
2018-05-15T05:19:30.678Z,57.37
2018-05-15T05:22:01.506Z,55.80
2018-05-15T05:24:30.256Z,58.10
2018-05-15T05:27:03.837Z,56.67
2018-05-15T05:29:32.582Z,58.53
2018-05-15T05:32:09.326Z,58.87
2018-05-15T05:34:38.046Z,56.10
2018-05-15T05:37:10.582Z,59.63
2018-05-15T05:39:39.878Z,59.53
2018-05-15T05:42:15.964Z,57.97
2018-05-15T05:44:44.941Z,54.93
2018-05-15T05:47:15.299Z,56.60
2018-05-15T05:49:44.137Z,56.33
2018-05-15T05:52:21.151Z,56.93
2018-05-15T05:54:50.199Z,56.37
2018-05-15T05:57:18.981Z,54.70
2018-05-15T05:59:47.953Z,53.47
2018-05-15T06:02:25.130Z,55.67
2018-05-15T06:04:54.689Z,56.57
2018-05-15T06:07:24.648Z,59.70
2018-05-15T06:09:53.466Z,58.40
2018-05-15T06:12:29.651Z,60.47
2018-05-15T06:14:58.560Z,59.50
2018-05-15T06:17:28.247Z,57.53
2018-05-15T06:19:57.043Z,56.10
2018-05-15T06:22:33.730Z,56.90
2018-05-15T06:25:02.836Z,57.67
2018-05-15T06:27:32.264Z,55.57
2018-05-15T06:30:01.415Z,57.77
2018-05-15T06:32:37.674Z,56.23
2018-05-15T06:35:06.506Z,57.70
2018-05-15T06:37:37.290Z,55.50
2018-05-15T06:40:06.334Z,54.47
2018-05-15T06:42:44.172Z,54.40
2018-05-15T06:45:12.971Z,55.03
2018-05-15T06:47:41.945Z,54.23
2018-05-15T06:50:11.588Z,55.40
2018-05-15T06:52:47.844Z,53.20
2018-05-15T06:55:16.707Z,50.77
2018-05-15T06:57:49.113Z,54.97
2018-05-15T07:00:18.179Z,53.70
2018-05-15T07:02:50.416Z,55.90
2018-05-15T07:05:19.996Z,53.43
2018-05-15T07:07:52.145Z,55.37
2018-05-15T07:10:21.231Z,54.27
2018-05-15T07:12:53.529Z,54.53
2018-05-15T07:15:22.526Z,54.13
2018-05-15T07:17:59.148Z,54.43
2018-05-15T07:20:27.980Z,51.03
2018-05-15T07:22:58.292Z,52.47
2018-05-15T07:25:28.417Z,55.43
2018-05-15T07:28:05.071Z,53.07
2018-05-15T07:30:34.117Z,53.77
2018-05-15T07:33:03.351Z,48.93
2018-05-15T07:35:33.311Z,52.47
2018-05-15T07:38:06.490Z,51.40
2018-05-15T07:40:35.254Z,50.43
2018-05-15T07:43:11.688Z,47.63
2018-05-15T07:45:40.772Z,47.83
2018-05-15T07:48:13.405Z,43.37
2018-05-15T07:50:42.988Z,42.50
2018-05-15T07:53:15.234Z,41.10
2018-05-15T07:55:44.474Z,39.80
2018-05-15T07:58:20.714Z,38.30
2018-05-15T08:00:49.827Z,37.70
2018-05-15T08:03:19.992Z,37.50
2018-05-15T08:05:49.104Z,35.17
2018-05-15T08:08:22.668Z,35.10
2018-05-15T08:10:51.636Z,34.93
2018-05-15T08:13:28.043Z,31.83
2018-05-15T08:15:57.882Z,32.83
2018-05-15T08:18:26.782Z,29.50
2018-05-15T08:20:55.645Z,24.93
2018-05-15T08:23:32.494Z,22.23
2018-05-15T08:26:01.441Z,20.87
2018-05-15T08:28:31.061Z,20.23
2018-05-15T08:31:00.824Z,19.00
2018-05-15T08:33:33.726Z,18.90
2018-05-15T08:36:03.028Z,18.93
2018-05-15T08:38:35.694Z,17.77
2018-05-15T08:41:04.804Z,16.83
2018-05-15T08:43:36.021Z,17.57
2018-05-15T08:46:05.146Z,16.80
2018-05-15T08:48:41.148Z,17.70
2018-05-15T08:51:09.999Z,16.73
2018-05-15T08:53:42.669Z,14.70
2018-05-15T08:56:11.949Z,15.70
2018-05-15T08:58:48.401Z,13.33
2018-05-15T09:01:17.999Z,14.00
2018-05-15T09:03:49.215Z,14.23
2018-05-15T09:06:18.207Z,13.67
2018-05-15T09:08:49.441Z,13.33
2018-05-15T09:11:18.548Z,12.40
2018-05-15T09:13:54.821Z,11.43
2018-05-15T09:16:24.679Z,12.73
2018-05-15T09:18:55.564Z,12.47
2018-05-15T09:21:24.432Z,12.07
2018-05-15T09:23:57.529Z,10.60
2018-05-15T09:26:26.453Z,10.37
2018-05-15T09:29:03.092Z,10.57
2018-05-15T09:31:31.896Z,9.77
2018-05-15T09:34:02.235Z,9.53
2018-05-15T09:36:31.925Z,9.60
2018-05-15T09:39:05.100Z,12.50
2018-05-15T09:41:34.019Z,9.30
2018-05-15T09:44:07.295Z,8.60
2018-05-15T09:46:36.988Z,7.07
2018-05-15T09:49:09.797Z,6.20
2018-05-15T09:51:39.782Z,5.80
2018-05-15T09:54:16.148Z,5.97
2018-05-15T09:56:45.049Z,5.00
2018-05-15T09:59:14.871Z,5.13
2018-05-15T10:01:43.754Z,5.50
2018-05-15T10:04:20.007Z,5.20
2018-05-15T10:06:49.241Z,5.70
2018-05-15T10:09:21.353Z,5.97
2018-05-15T10:11:50.178Z,5.43
2018-05-15T10:14:26.501Z,4.70
2018-05-15T10:16:55.437Z,4.87
2018-05-15T10:19:24.413Z,4.50
2018-05-15T10:21:53.257Z,4.30
2018-05-15T10:24:26.471Z,4.90
2018-05-15T10:26:55.372Z,5.20
2018-05-15T10:29:31.589Z,5.50
2018-05-15T10:32:01.714Z,4.30
2018-05-15T10:34:30.577Z,3.97
2018-05-15T10:43:48.404Z,4.60
2018-05-15T10:46:17.525Z,4.57
2018-05-15T10:48:46.484Z,4.40
2018-05-15T10:51:15.466Z,4.07
2018-05-15T10:53:45.065Z,3.67
2018-05-15T10:56:13.894Z,3.23
2018-05-15T10:58:42.840Z,2.90
2018-05-15T11:01:12.275Z,3.53
2018-05-15T11:03:44.993Z,3.50
2018-05-15T11:06:14.600Z,3.47
2018-05-15T11:08:47.032Z,3.87
2018-05-15T11:11:16.034Z,3.50
2018-05-15T11:13:49.721Z,3.27
2018-05-15T11:16:18.617Z,3.87
2018-05-15T11:18:51.947Z,3.40
2018-05-15T11:21:31.744Z,3.47
2018-05-15T11:24:10.434Z,2.90
2018-05-15T11:26:39.634Z,3.40
2018-05-15T11:29:08.478Z,3.07
2018-05-15T11:31:37.418Z,3.53
2018-05-15T11:34:06.634Z,2.83
2018-05-15T11:36:37.548Z,3.20
2018-05-15T11:39:07.113Z,2.90
2018-05-15T11:41:36.390Z,3.10
2018-05-15T11:44:05.567Z,2.90
2018-05-15T11:46:35.920Z,3.07
2018-05-15T11:49:07.566Z,4.03
2018-05-15T11:51:40.558Z,3.00
2018-05-15T11:54:09.392Z,3.63
2018-05-15T11:56:38.576Z,3.97
2018-05-15T11:59:12.026Z,3.40
2018-05-15T12:01:41.184Z,4.60
2018-05-15T12:04:13.671Z,3.47
2018-05-15T12:06:42.512Z,3.30
2018-05-15T12:11:46.938Z,4.10
2018-05-15T12:14:19.814Z,4.07
2018-05-15T12:16:49.230Z,3.70
2018-05-15T12:19:19.979Z,3.30
2018-05-15T12:21:49.846Z,3.40
2018-05-15T12:24:26.102Z,3.60
2018-05-15T12:26:55.590Z,3.00
2018-05-15T12:29:25.786Z,3.07
2018-05-15T12:31:55.456Z,3.67
2018-05-15T12:34:27.453Z,3.07
2018-05-15T12:36:56.422Z,3.10
2018-05-15T12:39:29.955Z,3.57
2018-05-15T12:41:59.787Z,4.87
2018-05-15T12:44:33.329Z,4.07
2018-05-15T12:47:02.524Z,3.93
2018-05-15T12:49:35.095Z,3.57
2018-05-15T12:52:03.948Z,4.23
2018-05-15T12:54:36.594Z,3.80
2018-05-15T12:57:05.470Z,4.60
2018-05-15T12:59:38.427Z,3.77
2018-05-15T13:02:07.236Z,4.30
2018-05-15T13:04:43.893Z,3.73
2018-05-15T13:07:13.076Z,3.90
2018-05-15T13:09:44.071Z,3.80
2018-05-15T13:12:13.658Z,4.10
2018-05-15T13:14:47.752Z,3.70
2018-05-15T13:17:16.613Z,3.40
2018-05-15T13:19:49.920Z,4.00
2018-05-15T13:22:19.016Z,3.53
2018-05-15T13:24:51.684Z,4.27
2018-05-15T13:27:20.491Z,4.17
2018-05-15T13:29:54.492Z,3.87
2018-05-15T13:32:24.855Z,3.50
2018-05-15T13:34:57.447Z,3.33
2018-05-15T13:37:27.385Z,3.50
2018-05-15T13:39:59.893Z,3.30
2018-05-15T13:42:28.715Z,4.00
2018-05-15T13:45:06.395Z,3.40
2018-05-15T13:47:35.258Z,4.33
2018-05-15T13:50:04.940Z,2.93
2018-05-15T13:52:33.800Z,3.97
2018-05-15T13:55:07.098Z,3.87
2018-05-15T13:57:37.009Z,3.63
2018-05-15T14:00:09.636Z,3.33
2018-05-15T14:02:38.471Z,3.00
2018-05-15T14:05:15.643Z,2.90
2018-05-15T14:07:45.300Z,2.60
2018-05-15T14:10:15.086Z,3.50
2018-05-15T14:12:45.112Z,3.20
2018-05-15T14:15:17.796Z,3.73
2018-05-15T14:17:46.708Z,3.37
2018-05-15T14:20:19.236Z,3.13
2018-05-15T14:22:48.862Z,3.67
2018-05-15T14:25:26.020Z,3.50
2018-05-15T14:27:55.105Z,3.53
2018-05-15T14:30:24.020Z,2.97
2018-05-15T14:32:53.333Z,2.67
2018-05-15T14:35:29.559Z,2.67
2018-05-15T14:38:02.114Z,2.40
2018-05-15T14:40:37.188Z,3.00
2018-05-15T14:43:30.150Z,2.90
2018-05-15T14:45:59.342Z,2.73
2018-05-15T14:48:32.100Z,3.10
2018-05-15T14:51:10.996Z,3.20
2018-05-15T14:53:40.133Z,2.50
2018-05-15T14:56:09.707Z,3.30
2018-05-15T14:58:38.589Z,2.63
2018-05-15T15:01:09.780Z,3.07
2018-05-15T15:03:50.202Z,3.33
2018-05-15T15:06:20.344Z,3.30
2018-05-15T15:08:50.031Z,3.20
2018-05-15T15:11:19.634Z,2.87
2018-05-15T15:13:48.865Z,2.93
2018-05-15T15:16:18.454Z,3.03
2018-05-15T15:18:47.333Z,3.10
2018-05-15T15:21:16.507Z,2.57
2018-05-15T15:23:52.664Z,2.97
2018-05-15T15:26:21.573Z,3.70
2018-05-15T15:28:53.540Z,3.50
2018-05-15T15:31:22.377Z,3.27
2018-05-15T15:33:54.180Z,3.70
2018-05-15T15:36:23.077Z,3.33
2018-05-15T15:38:58.937Z,3.20
2018-05-15T15:41:27.887Z,3.43
2018-05-15T15:44:00.707Z,3.33
2018-05-15T15:46:29.877Z,3.20
2018-05-15T15:49:02.549Z,3.60
2018-05-15T15:51:31.389Z,3.20
2018-05-15T15:54:05.281Z,3.73
2018-05-15T15:56:34.105Z,3.87
2018-05-15T15:59:10.722Z,3.70
2018-05-15T16:01:39.608Z,3.63
2018-05-15T16:04:10.264Z,4.00
2018-05-15T16:06:41.484Z,3.40
2018-05-15T16:09:13.724Z,3.77
2018-05-15T16:11:42.547Z,3.63
2018-05-15T16:14:19.435Z,3.13
2018-05-15T16:16:48.389Z,4.30
2018-05-15T16:19:17.475Z,3.53
2018-05-15T16:21:46.547Z,3.97
2018-05-15T16:24:20.242Z,3.40
2018-05-15T16:26:50.032Z,3.53
2018-05-15T16:29:22.994Z,3.93
2018-05-15T16:31:52.602Z,4.10
2018-05-15T16:34:24.711Z,4.90
2018-05-15T16:39:24.261Z,3.63
2018-05-15T16:41:53.167Z,3.30
2018-05-15T16:44:30.426Z,3.10
2018-05-15T16:46:59.650Z,3.10
2018-05-15T16:49:30.078Z,4.00
2018-05-15T16:51:58.988Z,3.73
2018-05-15T16:54:36.019Z,3.90
2018-05-15T16:57:05.129Z,3.80
2018-05-15T16:59:37.185Z,3.77
2018-05-15T17:02:06.390Z,3.83
2018-05-15T17:04:38.797Z,4.00
2018-05-15T17:07:07.898Z,3.40
2018-05-15T17:09:40.777Z,3.77
2018-05-15T17:12:09.651Z,3.53
2018-05-15T17:14:46.110Z,3.03
2018-05-15T17:17:15.434Z,2.87
2018-05-15T17:19:45.671Z,3.13
2018-05-15T17:22:15.304Z,2.87
2018-05-15T17:24:47.824Z,2.87
2018-05-15T17:27:17.381Z,3.03
2018-05-15T17:29:51.272Z,2.90
2018-05-15T17:32:20.708Z,2.73
2018-05-15T17:34:53.264Z,2.53
2018-05-15T17:37:23.090Z,2.87
2018-05-15T17:39:55.474Z,2.77
2018-05-15T17:42:25.191Z,2.80
2018-05-15T17:44:58.096Z,2.97
2018-05-15T17:47:27.058Z,2.60
2018-05-15T17:50:01.652Z,3.17
2018-05-15T17:52:31.381Z,3.20
2018-05-15T17:55:04.490Z,3.23
2018-05-15T17:57:33.637Z,3.33
2018-05-15T18:00:07.096Z,3.80
2018-05-15T18:02:36.013Z,3.73
2018-05-15T18:05:08.119Z,2.70
2018-05-15T18:07:36.978Z,3.33
2018-05-15T18:10:13.896Z,3.30
2018-05-15T18:12:43.319Z,3.07
2018-05-15T18:15:13.558Z,3.33
2018-05-15T18:17:42.365Z,2.97
2018-05-15T18:20:21.478Z,3.43
2018-05-15T18:22:50.610Z,3.70
2018-05-15T18:25:20.215Z,3.27
2018-05-15T18:27:50.280Z,3.57
2018-05-15T18:30:23.250Z,4.63
2018-05-15T18:32:52.440Z,4.10
2018-05-15T18:35:25.376Z,3.33
2018-05-15T18:37:55.148Z,3.83
2018-05-15T18:40:27.177Z,3.37
2018-05-15T18:42:56.452Z,3.90
2018-05-15T18:45:32.760Z,3.90
2018-05-15T18:48:01.803Z,3.73
2018-05-15T18:50:32.512Z,4.17
2018-05-15T18:53:01.547Z,3.20
2018-05-15T18:55:34.058Z,3.47
2018-05-15T18:58:03.072Z,3.40
2018-05-15T19:00:37.092Z,3.40
2018-05-15T19:03:06.698Z,3.60
2018-05-15T19:05:40.159Z,3.90
2018-05-15T19:08:09.583Z,3.87
2018-05-15T19:10:39.307Z,3.73
2018-05-15T19:13:08.625Z,3.53
2018-05-15T19:15:44.959Z,3.90
2018-05-15T19:18:14.163Z,2.67
2018-05-15T19:20:50.165Z,3.63
2018-05-15T19:23:19.142Z,3.40
2018-05-15T19:25:49.231Z,3.33
2018-05-15T19:28:18.214Z,3.30
2018-05-15T19:30:51.186Z,3.13
2018-05-15T19:33:24.743Z,3.30
2018-05-15T19:35:54.414Z,3.33
2018-05-15T19:38:23.447Z,3.07
2018-05-15T19:41:18.094Z,3.30
2018-05-15T19:43:55.050Z,3.20
2018-05-15T19:46:24.023Z,3.37
2018-05-15T19:48:58.973Z,3.53
2018-05-15T19:51:28.221Z,3.63
2018-05-15T19:54:03.261Z,3.83
2018-05-15T19:56:32.787Z,4.33
2018-05-15T19:59:03.235Z,4.20
2018-05-15T20:01:32.247Z,4.33
2018-05-15T20:04:05.037Z,5.20
2018-05-15T20:06:34.177Z,5.10
2018-05-15T20:09:07.557Z,4.57
2018-05-15T20:11:36.564Z,4.07
2018-05-15T20:14:13.350Z,3.60
2018-05-15T20:16:42.218Z,4.17
2018-05-15T20:19:15.638Z,3.93
2018-05-15T20:21:44.591Z,3.80
2018-05-15T20:24:15.412Z,3.63
2018-05-15T20:26:44.622Z,3.03
2018-05-15T20:29:21.460Z,3.33
2018-05-15T20:31:50.362Z,2.70
2018-05-15T20:34:19.464Z,3.23
2018-05-15T20:36:48.386Z,3.13
2018-05-15T20:39:21.845Z,2.37
2018-05-15T20:41:50.707Z,4.03
2018-05-15T20:44:23.047Z,2.83
2018-05-15T20:46:52.853Z,2.67
2018-05-15T20:49:24.866Z,3.30
2018-05-15T20:51:54.120Z,3.40
2018-05-15T20:54:26.478Z,2.73
2018-05-15T20:56:55.545Z,3.10
2018-05-15T20:59:28.969Z,3.40
2018-05-15T21:01:57.938Z,3.70
2018-05-15T21:04:34.363Z,2.93
2018-05-15T21:07:04.341Z,4.17
2018-05-15T21:09:35.313Z,3.20
2018-05-15T21:12:21.659Z,3.80
2018-05-15T21:14:50.947Z,3.87
2018-05-15T21:17:20.637Z,3.93
2018-05-15T21:19:50.317Z,4.73
2018-05-15T21:22:19.894Z,3.40
2018-05-15T21:24:48.902Z,3.73
2018-05-15T21:27:18.769Z,3.50
2018-05-15T21:29:48.130Z,4.17
2018-05-15T21:32:17.839Z,3.57
2018-05-15T21:34:47.618Z,3.63
2018-05-15T21:37:17.033Z,3.30
2018-05-15T21:39:48.956Z,3.50
2018-05-15T21:42:17.834Z,3.57
2018-05-15T21:44:50.539Z,2.67
2018-05-15T21:47:20.579Z,3.27
2018-05-15T21:49:56.494Z,3.27
2018-05-15T21:52:25.617Z,3.43
2018-05-15T21:54:55.038Z,3.17
2018-05-15T21:57:23.883Z,3.53
2018-05-15T22:00:00.824Z,3.80
2018-05-15T22:02:30.609Z,4.13
2018-05-15T22:05:07.709Z,3.93
2018-05-15T22:07:38.776Z,4.63
2018-05-15T22:10:07.929Z,4.63
2018-05-15T22:12:47.778Z,4.37
2018-05-15T22:15:27.827Z,4.97
2018-05-15T22:18:16.064Z,4.83
2018-05-15T22:20:56.383Z,4.60
2018-05-15T22:23:23.917Z,5.23
2018-05-15T22:25:53.175Z,5.27
2018-05-15T22:28:22.386Z,5.37
2018-05-15T22:30:52.057Z,4.27
2018-05-15T22:33:21.450Z,4.67
2018-05-15T22:35:50.366Z,4.20
2018-05-15T22:38:20.040Z,3.80
2018-05-15T22:40:49.158Z,3.90
2018-05-15T22:43:21.560Z,3.07
2018-05-15T22:45:50.337Z,3.13
2018-05-15T22:48:23.170Z,3.03
2018-05-15T22:50:52.236Z,2.90
2018-05-15T22:53:24.856Z,3.47
2018-05-15T22:55:53.677Z,3.50
2018-05-15T22:58:26.107Z,3.43
2018-05-15T23:00:55.961Z,3.10
2018-05-15T23:03:28.918Z,3.77
2018-05-15T23:05:58.458Z,4.07
2018-05-15T23:08:31.073Z,4.13
2018-05-15T23:10:59.909Z,4.90
2018-05-15T23:13:33.038Z,4.30
2018-05-15T23:16:02.010Z,4.57
2018-05-15T23:18:35.516Z,4.73
2018-05-15T23:21:05.110Z,4.90
2018-05-15T23:23:37.027Z,4.93
2018-05-15T23:26:06.461Z,4.77
2018-05-15T23:28:38.557Z,4.80
2018-05-15T23:31:08.400Z,4.17
2018-05-15T23:33:41.839Z,5.00
2018-05-15T23:36:10.616Z,5.20
2018-05-15T23:38:43.103Z,4.90
2018-05-15T23:41:12.132Z,5.33
2018-05-15T23:43:48.387Z,5.17
2018-05-15T23:46:17.698Z,5.63
2018-05-15T23:48:47.663Z,5.47
2018-05-15T23:51:16.752Z,5.73
2018-05-15T23:53:50.335Z,5.17
2018-05-15T23:56:19.648Z,5.87
2018-05-15T23:58:52.664Z,5.10
